sensor_id;sensor_type;location;lat;lon;timestamp;temperature;humidity
3846;DHT22;1938;50.812;7.738;2023-06-22T00:00:55;19.40;99.90
3846;DHT22;1938;50.812;7.738;2023-06-22T00:03:22;19.40;99.90
3846;DHT22;1938;50.812;7.738;2023-06-22T00:05:48;19.40;99.90
3846;DHT22;1938;50.812;7.738;2023-06-22T00:08:15;19.50;99.90
3846;DHT22;1938;50.812;7.738;2023-06-22T00:10:42;19.50;99.90
3846;DHT22;1938;50.812;7.738;2023-06-22T00:13:08;19.50;99.90
3846;DHT22;1938;50.812;7.738;2023-06-22T00:15:35;19.50;99.90
3846;DHT22;1938;50.812;7.738;2023-06-22T00:18:00;19.50;99.90
3846;DHT22;1938;50.812;7.738;2023-06-22T00:20:27;19.60;99.90
3846;DHT22;1938;50.812;7.738;2023-06-22T00:22:54;19.60;99.90
3846;DHT22;1938;50.812;7.738;2023-06-22T00:25:21;19.70;99.90
3846;DHT22;1938;50.812;7.738;2023-06-22T00:27:47;19.80;99.90
3846;DHT22;1938;50.812;7.738;2023-06-22T00:30:13;19.80;99.90
3846;DHT22;1938;50.812;7.738;2023-06-22T00:32:38;19.90;99.90
3846;DHT22;1938;50.812;7.738;2023-06-22T00:35:04;19.90;99.90
3846;DHT22;1938;50.812;7.738;2023-06-22T00:37:30;19.90;99.90
3846;DHT22;1938;50.812;7.738;2023-06-22T00:39:58;20.00;99.90
3846;DHT22;1938;50.812;7.738;2023-06-22T00:42:24;20.00;91.30
3846;DHT22;1938;50.812;7.738;2023-06-22T00:44:50;20.00;70.20
3846;DHT22;1938;50.812;7.738;2023-06-22T00:47:17;20.10;31.80
3846;DHT22;1938;50.812;7.738;2023-06-22T00:49:43;20.10;2.10
3846;DHT22;1938;50.812;7.738;2023-06-22T00:52:10;20.10;1.00
3846;DHT22;1938;50.812;7.738;2023-06-22T00:54:42;20.10;99.90
3846;DHT22;1938;50.812;7.738;2023-06-22T00:57:12;20.10;99.90
3846;DHT22;1938;50.812;7.738;2023-06-22T00:59:42;20.10;99.90
3846;DHT22;1938;50.812;7.738;2023-06-22T01:02:08;19.90;99.90
3846;DHT22;1938;50.812;7.738;2023-06-22T01:04:35;19.80;1.00
3846;DHT22;1938;50.812;7.738;2023-06-22T01:09:57;19.50;99.90
3846;DHT22;1938;50.812;7.738;2023-06-22T01:12:25;19.10;99.90
3846;DHT22;1938;50.812;7.738;2023-06-22T01:15:01;18.90;99.90
3846;DHT22;1938;50.812;7.738;2023-06-22T01:17:28;18.90;99.90
3846;DHT22;1938;50.812;7.738;2023-06-22T01:19:56;18.90;99.90
3846;DHT22;1938;50.812;7.738;2023-06-22T01:22:27;19.00;99.90
3846;DHT22;1938;50.812;7.738;2023-06-22T01:25:10;19.00;99.90
3846;DHT22;1938;50.812;7.738;2023-06-22T01:30:40;19.00;99.90
3846;DHT22;1938;50.812;7.738;2023-06-22T01:33:06;18.90;99.90
3846;DHT22;1938;50.812;7.738;2023-06-22T01:35:32;19.00;99.90
3846;DHT22;1938;50.812;7.738;2023-06-22T01:37:59;19.00;99.90
3846;DHT22;1938;50.812;7.738;2023-06-22T01:40:25;19.10;99.90
3846;DHT22;1938;50.812;7.738;2023-06-22T01:42:51;19.10;99.90
3846;DHT22;1938;50.812;7.738;2023-06-22T01:45:18;19.20;99.90
3846;DHT22;1938;50.812;7.738;2023-06-22T01:47:44;19.30;99.90
3846;DHT22;1938;50.812;7.738;2023-06-22T01:50:09;19.40;99.90
3846;DHT22;1938;50.812;7.738;2023-06-22T01:52:36;19.50;99.90
3846;DHT22;1938;50.812;7.738;2023-06-22T01:55:01;19.50;99.90
3846;DHT22;1938;50.812;7.738;2023-06-22T01:57:27;19.60;99.90
3846;DHT22;1938;50.812;7.738;2023-06-22T01:59:57;19.60;99.90
3846;DHT22;1938;50.812;7.738;2023-06-22T02:02:24;19.60;99.90
3846;DHT22;1938;50.812;7.738;2023-06-22T02:04:59;19.60;99.90
3846;DHT22;1938;50.812;7.738;2023-06-22T02:07:31;19.50;99.90
3846;DHT22;1938;50.812;7.738;2023-06-22T02:09:59;19.50;99.90
3846;DHT22;1938;50.812;7.738;2023-06-22T02:12:26;19.50;99.90
3846;DHT22;1938;50.812;7.738;2023-06-22T02:14:54;19.60;99.90
3846;DHT22;1938;50.812;7.738;2023-06-22T02:17:20;19.60;99.90
3846;DHT22;1938;50.812;7.738;2023-06-22T02:19:45;19.70;99.90
3846;DHT22;1938;50.812;7.738;2023-06-22T02:22:11;19.80;99.90
3846;DHT22;1938;50.812;7.738;2023-06-22T02:24:39;19.90;99.90
3846;DHT22;1938;50.812;7.738;2023-06-22T02:27:04;19.90;99.90
3846;DHT22;1938;50.812;7.738;2023-06-22T02:29:32;19.90;99.90
3846;DHT22;1938;50.812;7.738;2023-06-22T02:31:58;20.00;99.90
3846;DHT22;1938;50.812;7.738;2023-06-22T02:34:23;19.90;99.90
3846;DHT22;1938;50.812;7.738;2023-06-22T02:36:49;19.90;99.90
3846;DHT22;1938;50.812;7.738;2023-06-22T02:39:23;19.50;99.90
3846;DHT22;1938;50.812;7.738;2023-06-22T02:41:50;19.30;99.90
3846;DHT22;1938;50.812;7.738;2023-06-22T02:44:15;19.20;99.90
3846;DHT22;1938;50.812;7.738;2023-06-22T02:46:41;19.10;99.90
3846;DHT22;1938;50.812;7.738;2023-06-22T02:49:07;18.90;99.90
3846;DHT22;1938;50.812;7.738;2023-06-22T02:51:34;18.80;99.90
3846;DHT22;1938;50.812;7.738;2023-06-22T02:54:00;18.80;99.90
3846;DHT22;1938;50.812;7.738;2023-06-22T02:56:26;18.70;99.90
3846;DHT22;1938;50.812;7.738;2023-06-22T02:58:51;18.70;99.90
3846;DHT22;1938;50.812;7.738;2023-06-22T03:01:18;18.70;99.90
3846;DHT22;1938;50.812;7.738;2023-06-22T03:03:49;18.70;99.90
3846;DHT22;1938;50.812;7.738;2023-06-22T03:06:15;18.70;99.90
3846;DHT22;1938;50.812;7.738;2023-06-22T03:08:41;18.70;99.90
3846;DHT22;1938;50.812;7.738;2023-06-22T03:11:07;18.60;99.90
3846;DHT22;1938;50.812;7.738;2023-06-22T03:13:33;18.70;99.90
3846;DHT22;1938;50.812;7.738;2023-06-22T03:15:58;18.70;99.90
3846;DHT22;1938;50.812;7.738;2023-06-22T03:18:24;18.80;99.90
3846;DHT22;1938;50.812;7.738;2023-06-22T03:20:50;18.90;99.90
3846;DHT22;1938;50.812;7.738;2023-06-22T03:23:15;18.90;99.90
3846;DHT22;1938;50.812;7.738;2023-06-22T03:25:41;19.00;99.90
3846;DHT22;1938;50.812;7.738;2023-06-22T03:28:07;19.00;99.90
3846;DHT22;1938;50.812;7.738;2023-06-22T03:30:32;18.90;99.90
3846;DHT22;1938;50.812;7.738;2023-06-22T03:32:58;18.70;99.90
3846;DHT22;1938;50.812;7.738;2023-06-22T03:35:23;18.60;99.90
3846;DHT22;1938;50.812;7.738;2023-06-22T03:37:49;18.50;99.90
3846;DHT22;1938;50.812;7.738;2023-06-22T03:40:14;18.50;99.90
3846;DHT22;1938;50.812;7.738;2023-06-22T03:42:40;18.50;99.90
3846;DHT22;1938;50.812;7.738;2023-06-22T03:45:06;18.40;99.90
3846;DHT22;1938;50.812;7.738;2023-06-22T03:47:32;18.50;99.90
3846;DHT22;1938;50.812;7.738;2023-06-22T03:49:58;18.50;99.90
3846;DHT22;1938;50.812;7.738;2023-06-22T03:52:24;18.60;99.90
3846;DHT22;1938;50.812;7.738;2023-06-22T03:54:50;18.60;99.90
3846;DHT22;1938;50.812;7.738;2023-06-22T03:57:16;18.60;99.90
3846;DHT22;1938;50.812;7.738;2023-06-22T03:59:41;18.60;99.90
3846;DHT22;1938;50.812;7.738;2023-06-22T04:02:07;18.50;99.90
3846;DHT22;1938;50.812;7.738;2023-06-22T04:04:32;18.40;99.90
3846;DHT22;1938;50.812;7.738;2023-06-22T04:07:00;18.30;99.90
3846;DHT22;1938;50.812;7.738;2023-06-22T04:09:26;18.30;99.90
3846;DHT22;1938;50.812;7.738;2023-06-22T04:11:51;18.30;99.90
3846;DHT22;1938;50.812;7.738;2023-06-22T04:14:17;18.30;99.90
3846;DHT22;1938;50.812;7.738;2023-06-22T04:16:43;18.30;99.90
3846;DHT22;1938;50.812;7.738;2023-06-22T04:19:08;18.40;99.90
3846;DHT22;1938;50.812;7.738;2023-06-22T04:21:39;18.30;99.90
3846;DHT22;1938;50.812;7.738;2023-06-22T04:24:05;18.40;99.90
3846;DHT22;1938;50.812;7.738;2023-06-22T04:26:30;18.50;99.90
3846;DHT22;1938;50.812;7.738;2023-06-22T04:28:57;18.40;99.90
3846;DHT22;1938;50.812;7.738;2023-06-22T04:31:22;18.50;99.90
3846;DHT22;1938;50.812;7.738;2023-06-22T04:33:52;18.60;99.90
3846;DHT22;1938;50.812;7.738;2023-06-22T04:36:18;18.50;99.90
3846;DHT22;1938;50.812;7.738;2023-06-22T04:38:44;18.60;99.90
3846;DHT22;1938;50.812;7.738;2023-06-22T04:41:10;18.60;99.90
3846;DHT22;1938;50.812;7.738;2023-06-22T04:43:39;18.50;99.90
3846;DHT22;1938;50.812;7.738;2023-06-22T04:46:05;18.60;99.90
3846;DHT22;1938;50.812;7.738;2023-06-22T04:48:31;18.70;99.90
3846;DHT22;1938;50.812;7.738;2023-06-22T04:50:59;18.80;99.90
3846;DHT22;1938;50.812;7.738;2023-06-22T04:53:28;19.00;99.90
3846;DHT22;1938;50.812;7.738;2023-06-22T04:55:55;19.10;99.90
3846;DHT22;1938;50.812;7.738;2023-06-22T04:58:20;19.30;99.90
3846;DHT22;1938;50.812;7.738;2023-06-22T05:00:47;19.40;99.90
3846;DHT22;1938;50.812;7.738;2023-06-22T05:03:12;19.60;99.90
3846;DHT22;1938;50.812;7.738;2023-06-22T05:05:38;19.80;99.90
3846;DHT22;1938;50.812;7.738;2023-06-22T05:08:03;20.10;99.90
3846;DHT22;1938;50.812;7.738;2023-06-22T05:10:33;20.50;99.90
3846;DHT22;1938;50.812;7.738;2023-06-22T05:12:59;21.50;99.90
3846;DHT22;1938;50.812;7.738;2023-06-22T05:15:24;22.20;1.00
3846;DHT22;1938;50.812;7.738;2023-06-22T05:17:53;23.10;99.90
3846;DHT22;1938;50.812;7.738;2023-06-22T05:20:19;23.90;99.90
3846;DHT22;1938;50.812;7.738;2023-06-22T05:22:44;25.40;1.00
3846;DHT22;1938;50.812;7.738;2023-06-22T05:25:11;27.00;99.90
3846;DHT22;1938;50.812;7.738;2023-06-22T05:27:37;27.20;99.90
3846;DHT22;1938;50.812;7.738;2023-06-22T05:30:08;28.70;99.90
3846;DHT22;1938;50.812;7.738;2023-06-22T05:32:35;29.00;37.90
3846;DHT22;1938;50.812;7.738;2023-06-22T05:35:03;28.70;22.80
3846;DHT22;1938;50.812;7.738;2023-06-22T05:37:29;30.70;3.10
3846;DHT22;1938;50.812;7.738;2023-06-22T05:39:55;29.80;1.00
3846;DHT22;1938;50.812;7.738;2023-06-22T05:42:22;29.30;1.00
3846;DHT22;1938;50.812;7.738;2023-06-22T05:44:48;30.30;1.00
3846;DHT22;1938;50.812;7.738;2023-06-22T05:47:13;30.80;1.00
3846;DHT22;1938;50.812;7.738;2023-06-22T05:49:39;31.00;1.00
3846;DHT22;1938;50.812;7.738;2023-06-22T05:52:05;30.90;1.00
3846;DHT22;1938;50.812;7.738;2023-06-22T05:54:30;31.40;1.00
3846;DHT22;1938;50.812;7.738;2023-06-22T05:56:56;33.10;1.00
3846;DHT22;1938;50.812;7.738;2023-06-22T05:59:21;32.90;1.00
3846;DHT22;1938;50.812;7.738;2023-06-22T06:01:47;31.60;1.00
3846;DHT22;1938;50.812;7.738;2023-06-22T06:04:18;30.70;1.00
3846;DHT22;1938;50.812;7.738;2023-06-22T06:06:44;31.70;1.00
3846;DHT22;1938;50.812;7.738;2023-06-22T06:09:10;32.20;1.00
3846;DHT22;1938;50.812;7.738;2023-06-22T06:11:37;33.30;1.00
3846;DHT22;1938;50.812;7.738;2023-06-22T06:14:02;34.00;1.00
3846;DHT22;1938;50.812;7.738;2023-06-22T06:16:28;33.90;1.00
3846;DHT22;1938;50.812;7.738;2023-06-22T06:18:53;35.90;1.00
3846;DHT22;1938;50.812;7.738;2023-06-22T06:21:21;36.30;1.00
3846;DHT22;1938;50.812;7.738;2023-06-22T06:23:47;37.00;1.00
3846;DHT22;1938;50.812;7.738;2023-06-22T06:26:13;37.80;1.00
3846;DHT22;1938;50.812;7.738;2023-06-22T06:28:41;36.60;1.00
3846;DHT22;1938;50.812;7.738;2023-06-22T06:31:06;34.00;1.00
3846;DHT22;1938;50.812;7.738;2023-06-22T06:33:32;33.60;1.00
3846;DHT22;1938;50.812;7.738;2023-06-22T06:35:58;32.50;1.00
3846;DHT22;1938;50.812;7.738;2023-06-22T06:38:27;32.40;1.00
3846;DHT22;1938;50.812;7.738;2023-06-22T06:40:52;33.10;1.00
3846;DHT22;1938;50.812;7.738;2023-06-22T06:43:18;31.80;1.00
3846;DHT22;1938;50.812;7.738;2023-06-22T06:45:44;30.40;1.00
3846;DHT22;1938;50.812;7.738;2023-06-22T06:48:10;29.90;1.00
3846;DHT22;1938;50.812;7.738;2023-06-22T06:50:36;29.70;1.00
3846;DHT22;1938;50.812;7.738;2023-06-22T06:53:01;29.20;1.00
3846;DHT22;1938;50.812;7.738;2023-06-22T06:55:27;29.00;1.00
3846;DHT22;1938;50.812;7.738;2023-06-22T06:57:54;28.30;1.00
3846;DHT22;1938;50.812;7.738;2023-06-22T07:00:19;27.30;99.10
3846;DHT22;1938;50.812;7.738;2023-06-22T07:02:45;26.60;99.90
3846;DHT22;1938;50.812;7.738;2023-06-22T07:05:13;25.80;1.00
3846;DHT22;1938;50.812;7.738;2023-06-22T07:07:39;25.70;91.50
3846;DHT22;1938;50.812;7.738;2023-06-22T07:10:08;25.30;99.90
3846;DHT22;1938;50.812;7.738;2023-06-22T07:12:33;25.30;99.90
3846;DHT22;1938;50.812;7.738;2023-06-22T07:17:29;24.70;1.00
3846;DHT22;1938;50.812;7.738;2023-06-22T07:19:54;24.20;99.90
3846;DHT22;1938;50.812;7.738;2023-06-22T07:22:21;24.20;1.00
3846;DHT22;1938;50.812;7.738;2023-06-22T07:24:47;24.10;41.90
3846;DHT22;1938;50.812;7.738;2023-06-22T07:27:12;24.50;99.90
3846;DHT22;1938;50.812;7.738;2023-06-22T07:29:38;25.30;99.90
3846;DHT22;1938;50.812;7.738;2023-06-22T07:32:06;25.90;99.90
3846;DHT22;1938;50.812;7.738;2023-06-22T07:34:31;26.10;1.00
3846;DHT22;1938;50.812;7.738;2023-06-22T07:36:57;25.80;10.70
3846;DHT22;1938;50.812;7.738;2023-06-22T07:39:23;25.90;99.90
3846;DHT22;1938;50.812;7.738;2023-06-22T07:41:51;25.80;99.90
3846;DHT22;1938;50.812;7.738;2023-06-22T07:44:16;25.70;63.50
3846;DHT22;1938;50.812;7.738;2023-06-22T07:46:42;25.80;99.90
3846;DHT22;1938;50.812;7.738;2023-06-22T07:49:07;26.10;99.90
3846;DHT22;1938;50.812;7.738;2023-06-22T07:51:34;25.80;99.90
3846;DHT22;1938;50.812;7.738;2023-06-22T07:53:59;25.80;99.90
3846;DHT22;1938;50.812;7.738;2023-06-22T07:56:25;25.40;99.90
3846;DHT22;1938;50.812;7.738;2023-06-22T07:58:50;25.50;6.10
3846;DHT22;1938;50.812;7.738;2023-06-22T08:01:17;25.70;99.90
3846;DHT22;1938;50.812;7.738;2023-06-22T08:03:44;25.70;1.00
3846;DHT22;1938;50.812;7.738;2023-06-22T08:06:10;25.40;1.00
3846;DHT22;1938;50.812;7.738;2023-06-22T08:08:36;25.40;1.00
3846;DHT22;1938;50.812;7.738;2023-06-22T08:11:02;25.60;1.00
3846;DHT22;1938;50.812;7.738;2023-06-22T08:13:27;25.80;99.90
3846;DHT22;1938;50.812;7.738;2023-06-22T08:15:53;26.10;1.00
3846;DHT22;1938;50.812;7.738;2023-06-22T08:18:19;26.30;99.90
3846;DHT22;1938;50.812;7.738;2023-06-22T08:20:44;26.60;75.40
3846;DHT22;1938;50.812;7.738;2023-06-22T08:23:10;26.60;1.00
3846;DHT22;1938;50.812;7.738;2023-06-22T08:25:35;26.60;1.00
3846;DHT22;1938;50.812;7.738;2023-06-22T08:28:02;26.40;88.90
3846;DHT22;1938;50.812;7.738;2023-06-22T08:30:27;26.30;99.90
3846;DHT22;1938;50.812;7.738;2023-06-22T08:32:54;26.40;99.90
3846;DHT22;1938;50.812;7.738;2023-06-22T08:35:21;26.60;99.90
3846;DHT22;1938;50.812;7.738;2023-06-22T08:37:47;26.90;1.00
3846;DHT22;1938;50.812;7.738;2023-06-22T08:40:18;27.80;99.90
3846;DHT22;1938;50.812;7.738;2023-06-22T08:42:45;28.70;99.90
3846;DHT22;1938;50.812;7.738;2023-06-22T08:45:11;29.70;11.40
3846;DHT22;1938;50.812;7.738;2023-06-22T08:47:36;30.60;1.00
3846;DHT22;1938;50.812;7.738;2023-06-22T08:50:02;31.10;1.00
3846;DHT22;1938;50.812;7.738;2023-06-22T08:52:31;30.70;1.00
3846;DHT22;1938;50.812;7.738;2023-06-22T08:54:56;31.50;1.00
3846;DHT22;1938;50.812;7.738;2023-06-22T08:57:23;32.00;1.00
3846;DHT22;1938;50.812;7.738;2023-06-22T08:59:49;31.60;1.00
3846;DHT22;1938;50.812;7.738;2023-06-22T09:02:17;29.90;1.00
3846;DHT22;1938;50.812;7.738;2023-06-22T09:04:43;30.20;1.00
3846;DHT22;1938;50.812;7.738;2023-06-22T09:07:08;30.00;1.00
3846;DHT22;1938;50.812;7.738;2023-06-22T09:09:34;29.90;1.00
3846;DHT22;1938;50.812;7.738;2023-06-22T09:11:59;29.20;1.00
3846;DHT22;1938;50.812;7.738;2023-06-22T09:14:25;28.60;1.00
3846;DHT22;1938;50.812;7.738;2023-06-22T09:16:51;28.40;32.20
3846;DHT22;1938;50.812;7.738;2023-06-22T09:19:17;28.30;1.00
3846;DHT22;1938;50.812;7.738;2023-06-22T09:21:42;28.50;1.00
3846;DHT22;1938;50.812;7.738;2023-06-22T09:24:08;28.20;28.40
3846;DHT22;1938;50.812;7.738;2023-06-22T09:26:33;28.40;1.00
3846;DHT22;1938;50.812;7.738;2023-06-22T09:28:59;28.10;1.00
3846;DHT22;1938;50.812;7.738;2023-06-22T09:31:24;27.20;57.00
3846;DHT22;1938;50.812;7.738;2023-06-22T09:33:53;27.00;99.90
3846;DHT22;1938;50.812;7.738;2023-06-22T09:36:22;26.70;99.90
3846;DHT22;1938;50.812;7.738;2023-06-22T09:38:49;26.80;99.90
3846;DHT22;1938;50.812;7.738;2023-06-22T09:41:20;26.90;99.90
3846;DHT22;1938;50.812;7.738;2023-06-22T09:43:45;26.50;99.90
3846;DHT22;1938;50.812;7.738;2023-06-22T09:46:11;26.60;99.90
3846;DHT22;1938;50.812;7.738;2023-06-22T09:48:37;26.50;99.90
3846;DHT22;1938;50.812;7.738;2023-06-22T09:51:02;26.80;99.90
3846;DHT22;1938;50.812;7.738;2023-06-22T09:53:28;26.90;99.90
3846;DHT22;1938;50.812;7.738;2023-06-22T09:55:53;26.90;86.10
3846;DHT22;1938;50.812;7.738;2023-06-22T09:58:19;26.80;48.20
3846;DHT22;1938;50.812;7.738;2023-06-22T10:00:45;26.30;50.50
3846;DHT22;1938;50.812;7.738;2023-06-22T10:03:10;26.10;99.90
3846;DHT22;1938;50.812;7.738;2023-06-22T10:05:36;26.10;99.90
3846;DHT22;1938;50.812;7.738;2023-06-22T10:08:01;26.20;99.90
3846;DHT22;1938;50.812;7.738;2023-06-22T10:10:27;26.20;99.90
3846;DHT22;1938;50.812;7.738;2023-06-22T10:12:56;26.20;99.90
3846;DHT22;1938;50.812;7.738;2023-06-22T10:15:23;26.40;99.90
3846;DHT22;1938;50.812;7.738;2023-06-22T10:17:48;26.90;99.90
3846;DHT22;1938;50.812;7.738;2023-06-22T10:20:14;27.20;76.70
3846;DHT22;1938;50.812;7.738;2023-06-22T10:22:41;27.20;1.00
3846;DHT22;1938;50.812;7.738;2023-06-22T10:25:09;26.60;49.00
3846;DHT22;1938;50.812;7.738;2023-06-22T10:27:35;26.50;12.20
3846;DHT22;1938;50.812;7.738;2023-06-22T10:30:01;26.60;77.00
3846;DHT22;1938;50.812;7.738;2023-06-22T10:32:27;26.40;29.60
3846;DHT22;1938;50.812;7.738;2023-06-22T10:34:54;26.20;89.90
3846;DHT22;1938;50.812;7.738;2023-06-22T10:37:19;26.10;99.90
3846;DHT22;1938;50.812;7.738;2023-06-22T10:39:45;26.00;99.90
3846;DHT22;1938;50.812;7.738;2023-06-22T10:42:11;25.90;99.90
3846;DHT22;1938;50.812;7.738;2023-06-22T10:44:37;25.70;99.90
3846;DHT22;1938;50.812;7.738;2023-06-22T10:47:04;25.40;99.90
3846;DHT22;1938;50.812;7.738;2023-06-22T10:49:30;25.30;99.90
3846;DHT22;1938;50.812;7.738;2023-06-22T10:51:55;25.40;99.90
3846;DHT22;1938;50.812;7.738;2023-06-22T10:54:21;25.40;99.90
3846;DHT22;1938;50.812;7.738;2023-06-22T10:56:46;25.50;99.90
3846;DHT22;1938;50.812;7.738;2023-06-22T10:59:12;25.60;1.00
3846;DHT22;1938;50.812;7.738;2023-06-22T11:01:38;25.60;1.00
3846;DHT22;1938;50.812;7.738;2023-06-22T11:04:04;25.70;1.00
3846;DHT22;1938;50.812;7.738;2023-06-22T11:06:30;25.70;13.30
3846;DHT22;1938;50.812;7.738;2023-06-22T11:08:55;25.70;89.60
3846;DHT22;1938;50.812;7.738;2023-06-22T11:11:21;25.70;99.90
3846;DHT22;1938;50.812;7.738;2023-06-22T11:13:46;25.60;99.90
3846;DHT22;1938;50.812;7.738;2023-06-22T11:16:12;25.40;99.90
3846;DHT22;1938;50.812;7.738;2023-06-22T11:18:37;25.30;1.00
3846;DHT22;1938;50.812;7.738;2023-06-22T11:21:03;25.20;99.90
3846;DHT22;1938;50.812;7.738;2023-06-22T11:23:28;25.30;1.00
3846;DHT22;1938;50.812;7.738;2023-06-22T11:25:54;25.60;4.80
3846;DHT22;1938;50.812;7.738;2023-06-22T11:28:20;26.00;99.90
3846;DHT22;1938;50.812;7.738;2023-06-22T11:30:46;26.40;99.90
3846;DHT22;1938;50.812;7.738;2023-06-22T11:33:12;26.50;99.50
3846;DHT22;1938;50.812;7.738;2023-06-22T11:35:38;26.50;1.00
3846;DHT22;1938;50.812;7.738;2023-06-22T11:38:03;26.40;99.90
3846;DHT22;1938;50.812;7.738;2023-06-22T11:40:30;26.30;1.00
3846;DHT22;1938;50.812;7.738;2023-06-22T11:42:55;26.20;99.90
3846;DHT22;1938;50.812;7.738;2023-06-22T11:45:21;26.20;1.00
3846;DHT22;1938;50.812;7.738;2023-06-22T11:47:47;26.10;1.00
3846;DHT22;1938;50.812;7.738;2023-06-22T11:50:12;26.10;1.00
3846;DHT22;1938;50.812;7.738;2023-06-22T11:52:38;25.80;99.90
3846;DHT22;1938;50.812;7.738;2023-06-22T11:55:05;25.60;99.90
3846;DHT22;1938;50.812;7.738;2023-06-22T11:57:36;25.30;99.90
3846;DHT22;1938;50.812;7.738;2023-06-22T12:00:03;25.00;99.90
3846;DHT22;1938;50.812;7.738;2023-06-22T12:02:41;24.90;1.00
3846;DHT22;1938;50.812;7.738;2023-06-22T12:05:07;22.70;99.90
3846;DHT22;1938;50.812;7.738;2023-06-22T12:07:33;19.90;99.90
3846;DHT22;1938;50.812;7.738;2023-06-22T12:09:58;20.60;99.90
3846;DHT22;1938;50.812;7.738;2023-06-22T12:12:24;19.70;99.90
3846;DHT22;1938;50.812;7.738;2023-06-22T12:14:50;20.00;99.90
3846;DHT22;1938;50.812;7.738;2023-06-22T12:17:15;20.40;99.90
3846;DHT22;1938;50.812;7.738;2023-06-22T12:19:41;20.60;99.90
3846;DHT22;1938;50.812;7.738;2023-06-22T12:22:06;21.20;99.90
3846;DHT22;1938;50.812;7.738;2023-06-22T12:24:33;21.60;99.90
3846;DHT22;1938;50.812;7.738;2023-06-22T12:26:58;22.00;99.90
3846;DHT22;1938;50.812;7.738;2023-06-22T12:29:24;22.20;99.90
3846;DHT22;1938;50.812;7.738;2023-06-22T12:31:49;22.30;99.90
3846;DHT22;1938;50.812;7.738;2023-06-22T12:34:15;22.50;99.90
3846;DHT22;1938;50.812;7.738;2023-06-22T12:36:40;22.70;99.90
3846;DHT22;1938;50.812;7.738;2023-06-22T12:39:06;22.60;99.90
3846;DHT22;1938;50.812;7.738;2023-06-22T12:41:31;22.20;99.90
3846;DHT22;1938;50.812;7.738;2023-06-22T12:43:57;21.90;99.90
3846;DHT22;1938;50.812;7.738;2023-06-22T12:46:23;21.70;99.90
3846;DHT22;1938;50.812;7.738;2023-06-22T12:48:48;21.90;99.90
3846;DHT22;1938;50.812;7.738;2023-06-22T12:51:20;22.10;99.90
3846;DHT22;1938;50.812;7.738;2023-06-22T12:53:46;22.00;99.90
3846;DHT22;1938;50.812;7.738;2023-06-22T12:56:12;22.20;99.90
3846;DHT22;1938;50.812;7.738;2023-06-22T12:58:37;21.50;99.90
3846;DHT22;1938;50.812;7.738;2023-06-22T13:01:03;21.30;99.90
3846;DHT22;1938;50.812;7.738;2023-06-22T13:03:28;21.20;99.90
3846;DHT22;1938;50.812;7.738;2023-06-22T13:05:54;21.10;99.90
3846;DHT22;1938;50.812;7.738;2023-06-22T13:08:20;21.10;99.90
3846;DHT22;1938;50.812;7.738;2023-06-22T13:10:45;21.20;99.90
3846;DHT22;1938;50.812;7.738;2023-06-22T13:13:11;21.50;99.90
3846;DHT22;1938;50.812;7.738;2023-06-22T13:15:36;21.40;99.90
3846;DHT22;1938;50.812;7.738;2023-06-22T13:18:02;21.60;99.90
3846;DHT22;1938;50.812;7.738;2023-06-22T13:20:29;21.60;99.90
3846;DHT22;1938;50.812;7.738;2023-06-22T13:22:54;21.90;99.90
3846;DHT22;1938;50.812;7.738;2023-06-22T13:25:21;21.80;99.90
3846;DHT22;1938;50.812;7.738;2023-06-22T13:27:49;21.80;99.90
3846;DHT22;1938;50.812;7.738;2023-06-22T13:30:14;22.10;99.90
3846;DHT22;1938;50.812;7.738;2023-06-22T13:32:40;22.40;99.90
3846;DHT22;1938;50.812;7.738;2023-06-22T13:35:08;22.20;99.90
3846;DHT22;1938;50.812;7.738;2023-06-22T13:37:34;22.40;99.90
3846;DHT22;1938;50.812;7.738;2023-06-22T13:40:00;22.30;99.90
3846;DHT22;1938;50.812;7.738;2023-06-22T13:42:25;22.30;99.90
3846;DHT22;1938;50.812;7.738;2023-06-22T13:44:51;21.90;99.90
3846;DHT22;1938;50.812;7.738;2023-06-22T13:47:16;21.70;99.90
3846;DHT22;1938;50.812;7.738;2023-06-22T13:49:43;21.80;99.90
3846;DHT22;1938;50.812;7.738;2023-06-22T13:52:08;22.00;99.90
3846;DHT22;1938;50.812;7.738;2023-06-22T13:54:36;22.20;99.90
3846;DHT22;1938;50.812;7.738;2023-06-22T13:57:02;22.20;99.90
3846;DHT22;1938;50.812;7.738;2023-06-22T13:59:27;22.40;99.90
3846;DHT22;1938;50.812;7.738;2023-06-22T14:01:53;22.30;99.90
3846;DHT22;1938;50.812;7.738;2023-06-22T14:04:19;22.30;99.90
3846;DHT22;1938;50.812;7.738;2023-06-22T14:06:44;22.60;99.90
3846;DHT22;1938;50.812;7.738;2023-06-22T14:09:10;22.70;99.90
3846;DHT22;1938;50.812;7.738;2023-06-22T14:11:36;22.60;99.90
3846;DHT22;1938;50.812;7.738;2023-06-22T14:14:01;22.80;99.90
3846;DHT22;1938;50.812;7.738;2023-06-22T14:16:27;22.30;99.90
3846;DHT22;1938;50.812;7.738;2023-06-22T14:18:52;22.50;99.90
3846;DHT22;1938;50.812;7.738;2023-06-22T14:21:18;22.00;99.90
3846;DHT22;1938;50.812;7.738;2023-06-22T14:23:44;22.20;99.90
3846;DHT22;1938;50.812;7.738;2023-06-22T14:26:17;21.90;99.90
3846;DHT22;1938;50.812;7.738;2023-06-22T14:28:44;21.90;99.90
3846;DHT22;1938;50.812;7.738;2023-06-22T14:31:13;21.80;99.90
3846;DHT22;1938;50.812;7.738;2023-06-22T14:33:39;22.00;99.90
3846;DHT22;1938;50.812;7.738;2023-06-22T14:36:05;22.00;99.90
3846;DHT22;1938;50.812;7.738;2023-06-22T14:38:30;22.30;99.90
3846;DHT22;1938;50.812;7.738;2023-06-22T14:40:56;22.10;99.90
3846;DHT22;1938;50.812;7.738;2023-06-22T14:43:21;22.20;99.90
3846;DHT22;1938;50.812;7.738;2023-06-22T14:45:47;22.10;99.90
3846;DHT22;1938;50.812;7.738;2023-06-22T14:48:12;22.10;99.90
3846;DHT22;1938;50.812;7.738;2023-06-22T14:50:38;22.00;99.90
3846;DHT22;1938;50.812;7.738;2023-06-22T14:53:03;21.80;99.90
3846;DHT22;1938;50.812;7.738;2023-06-22T14:55:29;21.60;99.90
3846;DHT22;1938;50.812;7.738;2023-06-22T14:57:55;21.60;99.90
3846;DHT22;1938;50.812;7.738;2023-06-22T15:00:21;21.80;99.90
3846;DHT22;1938;50.812;7.738;2023-06-22T15:02:47;21.80;99.90
3846;DHT22;1938;50.812;7.738;2023-06-22T15:05:12;21.40;99.90
3846;DHT22;1938;50.812;7.738;2023-06-22T15:07:38;21.00;99.90
3846;DHT22;1938;50.812;7.738;2023-06-22T15:10:03;20.40;99.90
3846;DHT22;1938;50.812;7.738;2023-06-22T15:12:29;20.10;99.90
3846;DHT22;1938;50.812;7.738;2023-06-22T15:14:55;19.60;99.90
3846;DHT22;1938;50.812;7.738;2023-06-22T15:17:20;19.30;99.90
3846;DHT22;1938;50.812;7.738;2023-06-22T15:19:46;19.00;99.90
3846;DHT22;1938;50.812;7.738;2023-06-22T15:22:11;19.00;99.90
3846;DHT22;1938;50.812;7.738;2023-06-22T15:24:38;18.90;99.90
3846;DHT22;1938;50.812;7.738;2023-06-22T15:27:03;18.80;99.90
3846;DHT22;1938;50.812;7.738;2023-06-22T15:29:29;18.80;99.90
3846;DHT22;1938;50.812;7.738;2023-06-22T15:31:59;18.80;99.90
3846;DHT22;1938;50.812;7.738;2023-06-22T15:34:25;18.70;99.90
3846;DHT22;1938;50.812;7.738;2023-06-22T15:36:50;18.70;99.90
3846;DHT22;1938;50.812;7.738;2023-06-22T15:39:16;18.70;99.90
3846;DHT22;1938;50.812;7.738;2023-06-22T15:41:42;18.70;99.90
3846;DHT22;1938;50.812;7.738;2023-06-22T15:44:08;18.60;99.90
3846;DHT22;1938;50.812;7.738;2023-06-22T15:46:33;18.60;99.90
3846;DHT22;1938;50.812;7.738;2023-06-22T15:48:59;18.60;99.90
3846;DHT22;1938;50.812;7.738;2023-06-22T15:51:24;18.60;99.90
3846;DHT22;1938;50.812;7.738;2023-06-22T15:53:50;18.60;99.90
3846;DHT22;1938;50.812;7.738;2023-06-22T15:56:15;18.70;99.90
3846;DHT22;1938;50.812;7.738;2023-06-22T15:58:41;18.80;99.90
3846;DHT22;1938;50.812;7.738;2023-06-22T16:01:07;18.60;99.90
3846;DHT22;1938;50.812;7.738;2023-06-22T16:03:34;18.50;99.90
3846;DHT22;1938;50.812;7.738;2023-06-22T16:06:00;18.70;99.90